One Hundred Palms, California
Current Conditions -  °F | °C
As of 2:56 AM on Saturday 20 Dec 2014 (Local Time) from KNJK Reporting Station
Clear Clear  
Wind Chill:   Ceiling: Unl
Heat Index:   Visibility: 10mi
Dew Point:   Wind: 0mph
Humidity: 80%   Direction: NA
Pressure: 30.12"   Gusts: NA
Location:  33.093°N, 116.06°W
Report Text: KNJK 201056Z AUTO 00000KT 10SM CLR 08/05 A3012 RMK AO2 SLP214 T00830050
Loading
Personal Weather Stations






























Interactive Weather Map New forecast layout! Learn more

10-Day Weather Forecast

Advertisements
Track Severe Weather on mobile